createdAt,value
2023-03-18T00:05:18.474Z,14.90
2023-03-18T00:10:40.722Z,15.20
2023-03-18T00:16:02.952Z,16.67
2023-03-18T00:21:24.779Z,16.73
2023-03-18T00:26:46.609Z,14.27
2023-03-18T00:32:09.242Z,17.73
2023-03-18T00:37:31.728Z,15.97
2023-03-18T00:43:07.862Z,13.47
2023-03-18T00:48:29.996Z,14.07
2023-03-18T00:53:56.225Z,16.63
2023-03-18T00:59:18.888Z,12.70
2023-03-18T01:04:40.499Z,14.17
2023-03-18T01:10:02.421Z,15.07
2023-03-18T01:15:25.091Z,12.63
2023-03-18T01:20:47.334Z,13.67
2023-03-18T01:26:11.035Z,14.00
2023-03-18T01:31:35.890Z,20.90
2023-03-18T01:37:04.549Z,12.70
2023-03-18T01:42:29.772Z,17.70
2023-03-18T01:47:52.168Z,13.80
2023-03-18T01:53:17.213Z,14.13
2023-03-18T01:58:46.316Z,13.87
2023-03-18T02:04:10.654Z,14.00
2023-03-18T02:09:35.436Z,15.57
2023-03-18T02:15:01.172Z,18.10
2023-03-18T02:21:00.059Z,15.90
2023-03-18T02:26:41.333Z,13.43
2023-03-18T02:32:06.216Z,14.40
2023-03-18T02:37:28.289Z,14.27
2023-03-18T02:42:51.633Z,14.57
2023-03-18T02:48:17.961Z,14.40
2023-03-18T02:53:40.252Z,13.13
2023-03-18T02:59:02.223Z,12.90
2023-03-18T03:04:25.741Z,14.57
2023-03-18T03:09:47.569Z,13.97
2023-03-18T03:15:10.657Z,11.03
2023-03-18T03:20:39.274Z,13.00
2023-03-18T03:26:00.609Z,14.53
2023-03-18T03:31:22.347Z,15.47
2023-03-18T03:36:44.772Z,13.97
2023-03-18T03:42:07.188Z,11.17
2023-03-18T03:47:28.707Z,14.00
2023-03-18T03:52:51.385Z,14.87
2023-03-18T03:58:13.003Z,15.93
2023-03-18T04:03:35.699Z,12.60
2023-03-18T04:09:00.851Z,14.10
2023-03-18T04:14:22.590Z,12.60
2023-03-18T04:19:44.685Z,13.97
2023-03-18T04:25:11.309Z,15.30
2023-03-18T04:30:34.768Z,17.80
2023-03-18T04:36:03.202Z,13.43
2023-03-18T04:41:25.722Z,14.03
2023-03-18T04:46:50.391Z,14.80
2023-03-18T04:52:12.804Z,13.60
2023-03-18T04:57:37.760Z,13.73
2023-03-18T05:03:03.825Z,13.07
2023-03-18T05:08:25.469Z,14.70
2023-03-18T05:13:47.643Z,15.10
2023-03-18T05:19:12.281Z,16.37
2023-03-18T05:24:43.340Z,13.40
2023-03-18T05:30:11.277Z,17.80
2023-03-18T05:35:40.302Z,16.00
2023-03-18T05:41:02.427Z,14.40
2023-03-18T05:46:30.665Z,13.67
2023-03-18T05:52:11.023Z,13.07
2023-03-18T05:57:38.947Z,15.70
2023-03-18T06:03:03.925Z,18.47
2023-03-18T06:08:25.492Z,13.53
2023-03-18T06:13:47.784Z,12.77
2023-03-18T06:19:11.952Z,11.30
2023-03-18T06:24:33.981Z,12.63
2023-03-18T06:29:55.982Z,13.27
2023-03-18T06:35:19.072Z,10.70
2023-03-18T06:40:40.860Z,15.60
2023-03-18T06:46:03.555Z,14.33
2023-03-18T06:51:25.670Z,16.23
2023-03-18T06:56:48.219Z,12.73
2023-03-18T07:02:13.305Z,12.27
2023-03-18T07:07:34.509Z,14.23
2023-03-18T07:12:57.370Z,14.23
2023-03-18T07:18:19.017Z,16.50
2023-03-18T07:23:41.746Z,14.43
2023-03-18T07:29:03.976Z,12.37
2023-03-18T07:34:25.800Z,12.40
2023-03-18T07:39:48.849Z,16.50
2023-03-18T07:45:14.316Z,11.53
2023-03-18T07:50:36.791Z,13.13
2023-03-18T07:55:58.040Z,11.03
2023-03-18T08:01:20.056Z,14.47
2023-03-18T08:06:41.695Z,13.37
2023-03-18T08:12:03.178Z,11.87
2023-03-18T08:17:24.901Z,13.10
2023-03-18T08:22:46.934Z,16.10
2023-03-18T08:28:08.439Z,12.87
2023-03-18T08:33:30.204Z,20.97
2023-03-18T08:38:52.139Z,13.77
2023-03-18T08:44:13.810Z,13.37
2023-03-18T08:49:35.650Z,11.70
2023-03-18T08:54:57.775Z,13.73
2023-03-18T09:00:20.387Z,12.17
2023-03-18T09:05:43.068Z,12.47
2023-03-18T09:11:04.750Z,8.00
2023-03-18T09:16:26.579Z,7.83
2023-03-18T09:21:48.215Z,6.73
2023-03-18T09:27:09.841Z,6.80
2023-03-18T09:32:31.767Z,4.27
2023-03-18T09:37:54.252Z,7.23
2023-03-18T09:43:23.464Z,6.20
2023-03-18T09:48:51.248Z,6.63
2023-03-18T09:54:47.998Z,6.13
2023-03-18T10:00:37.940Z,7.23
2023-03-18T10:06:08.113Z,5.87
2023-03-18T10:11:29.780Z,6.07
2023-03-18T10:17:01.916Z,6.17
2023-03-18T10:22:49.888Z,5.80
2023-03-18T10:28:26.291Z,6.10
2023-03-18T10:34:00.715Z,7.30
2023-03-18T10:39:26.091Z,5.30
2023-03-18T10:44:48.227Z,3.93
2023-03-18T10:50:32.132Z,6.90
2023-03-18T10:56:14.758Z,5.47
2023-03-18T11:01:38.756Z,3.40
2023-03-18T11:07:04.215Z,2.63
2023-03-18T11:12:32.095Z,3.43
2023-03-18T11:17:58.542Z,6.60
2023-03-18T11:23:56.321Z,4.43
2023-03-18T11:29:25.921Z,5.37
2023-03-18T11:35:00.787Z,6.20
2023-03-18T11:40:28.248Z,4.77
2023-03-18T11:46:01.339Z,9.17
2023-03-18T11:51:56.259Z,2.87
2023-03-18T11:57:27.724Z,3.90
2023-03-18T12:02:55.450Z,3.73
2023-03-18T12:08:23.164Z,4.30
2023-03-18T12:13:45.003Z,3.30
2023-03-18T12:19:28.400Z,4.70
2023-03-18T12:25:08.580Z,4.33
2023-03-18T12:30:39.988Z,6.40
2023-03-18T12:36:20.739Z,6.33
2023-03-18T12:41:48.085Z,7.43
2023-03-18T12:47:50.740Z,6.00
2023-03-18T12:53:33.680Z,3.37
2023-03-18T12:59:09.609Z,5.70
2023-03-18T13:04:36.109Z,5.07
2023-03-18T13:10:26.538Z,4.60
2023-03-18T13:15:52.932Z,3.57
2023-03-18T13:21:23.649Z,2.50
2023-03-18T13:27:08.784Z,3.97
2023-03-18T13:32:55.072Z,4.83
2023-03-18T13:38:44.992Z,3.60
2023-03-18T13:44:23.334Z,5.43
2023-03-18T13:49:45.852Z,6.13
2023-03-18T13:55:17.039Z,3.10
2023-03-18T14:00:40.638Z,5.70
2023-03-18T14:06:05.607Z,3.93
2023-03-18T14:11:47.136Z,5.50
2023-03-18T14:17:37.196Z,4.57
2023-03-18T14:23:25.001Z,3.30
2023-03-18T14:29:07.222Z,7.33
2023-03-18T14:34:33.798Z,3.90
2023-03-18T14:40:03.747Z,5.47
2023-03-18T14:45:33.905Z,3.90
2023-03-18T14:51:00.102Z,3.83
2023-03-18T14:56:29.491Z,3.70
2023-03-18T15:01:52.604Z,2.77
2023-03-18T15:07:14.808Z,3.57
2023-03-18T15:12:37.467Z,2.43
2023-03-18T15:18:04.247Z,5.27
2023-03-18T15:23:31.670Z,5.33
2023-03-18T15:29:04.524Z,5.83
2023-03-18T15:34:31.695Z,14.17
2023-03-18T15:39:56.308Z,5.90
2023-03-18T15:45:27.415Z,4.13
2023-03-18T15:50:57.412Z,8.20
2023-03-18T15:56:29.800Z,8.57
2023-03-18T16:01:55.643Z,5.00
2023-03-18T16:07:28.492Z,5.80
2023-03-18T16:12:56.904Z,6.07
2023-03-18T16:18:18.515Z,4.93
2023-03-18T16:23:41.091Z,6.63
2023-03-18T16:29:02.847Z,6.23
2023-03-18T16:34:25.186Z,5.70
2023-03-18T16:39:46.720Z,12.50
2023-03-18T16:45:14.379Z,15.87
2023-03-18T16:50:38.651Z,17.97
2023-03-18T16:56:10.442Z,17.07
2023-03-18T17:01:32.398Z,16.80
2023-03-18T17:06:55.210Z,17.87
2023-03-18T17:12:17.439Z,17.47
2023-03-18T17:17:39.622Z,19.17
2023-03-18T17:23:01.447Z,20.37
2023-03-18T17:28:38.144Z,20.73
2023-03-18T17:33:59.798Z,16.83
2023-03-18T17:39:21.525Z,19.67
2023-03-18T17:44:43.164Z,22.30
2023-03-18T17:50:05.231Z,20.37
2023-03-18T17:55:27.463Z,19.77
2023-03-18T18:00:49.692Z,21.33
2023-03-18T18:06:18.704Z,22.10
2023-03-18T18:11:44.569Z,21.43
2023-03-18T18:17:14.377Z,26.73
2023-03-18T18:22:47.300Z,31.47
2023-03-18T18:28:22.012Z,24.67
2023-03-18T18:33:45.647Z,22.37
2023-03-18T18:39:07.677Z,22.60
2023-03-18T18:44:29.611Z,24.67
2023-03-18T18:49:51.288Z,27.57
2023-03-18T18:55:13.102Z,27.43
2023-03-18T19:00:34.561Z,25.80
2023-03-18T19:05:56.515Z,26.10
2023-03-18T19:11:18.459Z,29.50
2023-03-18T19:16:40.123Z,29.53
2023-03-18T19:22:02.997Z,34.70
2023-03-18T19:27:27.570Z,30.60
2023-03-18T19:32:49.427Z,29.43
2023-03-18T19:38:19.443Z,31.33
2023-03-18T19:43:42.155Z,34.27
2023-03-18T19:49:12.755Z,33.40
2023-03-18T19:54:36.842Z,31.27
2023-03-18T20:00:00.897Z,32.80
2023-03-18T20:05:25.950Z,30.50
2023-03-18T20:10:51.490Z,32.53
2023-03-18T20:16:17.991Z,31.20
2023-03-18T20:21:39.903Z,30.87
2023-03-18T20:27:01.503Z,29.03
2023-03-18T20:32:23.309Z,32.40
2023-03-18T20:37:46.071Z,32.60
2023-03-18T20:43:10.527Z,30.80
2023-03-18T20:48:32.953Z,31.80
2023-03-18T20:53:55.340Z,27.83
2023-03-18T20:59:17.309Z,32.10
2023-03-18T21:04:39.114Z,31.37
2023-03-18T21:10:00.930Z,34.20
2023-03-18T21:15:29.090Z,37.50
2023-03-18T21:20:51.146Z,32.40
2023-03-18T21:26:13.168Z,38.57
2023-03-18T21:31:34.993Z,30.83
2023-03-18T21:36:57.510Z,30.17
2023-03-18T21:42:28.373Z,31.10
2023-03-18T21:47:49.840Z,37.67
2023-03-18T21:53:19.862Z,31.10
2023-03-18T21:58:41.507Z,34.07
2023-03-18T22:04:03.881Z,31.47
2023-03-18T22:09:26.832Z,33.37
2023-03-18T22:14:48.251Z,30.50
2023-03-18T22:20:11.522Z,32.70
2023-03-18T22:25:39.192Z,29.70
2023-03-18T22:31:03.332Z,36.83
2023-03-18T22:36:27.601Z,30.70
2023-03-18T22:41:49.474Z,30.70
2023-03-18T22:47:25.484Z,30.37
2023-03-18T22:52:49.917Z,33.87
2023-03-18T22:58:29.923Z,35.63
2023-03-18T23:03:51.557Z,32.60
2023-03-18T23:09:13.217Z,30.17
2023-03-18T23:14:34.951Z,33.10
2023-03-18T23:19:57.224Z,35.10
2023-03-18T23:25:18.947Z,30.27
2023-03-18T23:30:42.869Z,29.13
2023-03-18T23:36:04.778Z,32.67
2023-03-18T23:41:26.464Z,29.70
2023-03-18T23:46:49.173Z,25.07
2023-03-18T23:52:14.246Z,30.63
2023-03-18T23:57:35.754Z,30.83
